Terminal Aerodrome Forecast
Issued by NWS Sterling, VA

Home | Current Version | Previous Version | Text Only | Print | Product List | Glossary On
Versions: 1 2 3 4 5 6 7 8 9 10 11 12 13 14 15 16 17 18 19 20 21
218
FTUS41 KLWX 051525 AAB
TAFCHO
TAF AMD
KCHO 051525Z 0515/0612 05008KT 2SM -RA BR OVC008
     FM051800 01005KT 5SM -SHRA BR OVC025=

USA.gov is the U.S. government's official web portal to all federal, state and local government web resources and services.